Time;durP1;ratioP1;P1;durP2;ratioP2;P2;SDS_P1;SDS_P2;PMS_P1;PMS_P2;Temp;Humidity;BMP_temperature;BMP_pressure;BME280_temperature;BME280_humidity;BME280_pressure;Samples;Min_cycle;Max_cycle;Signal;HPM_P1;HPM_P2
2022/03/10 00:02:24;;;;;;;;;;;;;;;0.12;70.39;96347.94;10536837;28;1873;-70
2022/03/10 00:07:27;;;;;;;;;;;;;;;0.08;71.31;96350.16;10506370;28;2284;-69
2022/03/10 00:12:31;;;;;;;;;;;;;;;0.01;70.45;96353.78;10532122;28;1881;-70
2022/03/10 00:17:34;;;;;;;;;;;;;;;-0.03;70.12;96350.69;10508374;28;1841;-68
2022/03/10 00:22:38;;;;;;;;;;;;;;;-0.06;69.90;96354.56;10502726;28;1794;-69
2022/03/10 00:27:42;;;;;;;;;;;;;;;-0.11;70.12;96356.13;10524579;28;1914;-69
2022/03/10 00:32:46;;;;;;;;;;;;;;;-0.16;70.78;96361.19;10494897;28;1938;-69
2022/03/10 00:37:50;;;;;;;;;;;;;;;-0.13;70.39;96353.66;10499954;28;1808;-69
2022/03/10 00:42:55;;;;;;;;;;;;;;;-0.14;71.66;96362.59;10526361;28;1857;-71
2022/03/10 00:47:58;;;;;;;;;;;0.90;99.90;;;-0.11;71.55;96361.44;10528540;28;2489;-70
2022/03/10 00:53:01;;;;;;;;;;;;;;;-0.11;71.52;96361.44;10504637;28;1875;-68
2022/03/10 00:58:05;;;;;;;;;;;;;;;-0.16;71.32;96354.06;10538932;22;2228;-76
2022/03/10 01:03:09;;;;;;;;;;;1.00;99.90;;;-0.21;71.00;96359.09;10551151;28;1798;-77
2022/03/10 01:08:12;;;;;;;;;;;1.00;99.90;;;-0.25;72.26;96360.50;10558531;28;1914;-77
2022/03/10 01:13:15;;;;;;;;;;;1.00;99.90;;;-0.31;72.86;96356.00;10568392;28;1944;-80
2022/03/10 01:18:18;;;;;;;;;;;0.90;99.90;;;-0.37;73.06;96356.75;10573945;28;2075;-76
2022/03/10 01:23:22;;;;;;;;;;;0.80;99.90;;;-0.41;72.49;96358.13;10562602;28;2427;-77
2022/03/10 01:28:26;;;;;;;;;;;0.80;99.90;;;-0.45;74.12;96364.78;10584433;28;2072;-79
2022/03/10 01:33:29;;;;;;;;;;;0.80;99.90;;;-0.42;74.50;96356.50;10576449;28;2011;-77
2022/03/10 01:38:32;;;;;;;;;;;0.80;99.90;;;-0.51;73.80;96357.63;10578302;28;1972;-78
2022/03/10 01:43:35;;;;;;;;;;;0.70;99.90;;;-0.63;75.99;96346.78;10584455;28;1974;-77
2022/03/10 01:48:38;;;;;;;;;;;0.70;99.90;;;-0.68;76.19;96357.09;10580241;28;1938;-77
2022/03/10 01:53:41;;;;;;;;;;;0.60;99.90;;;-0.78;76.17;96354.75;10590445;28;1842;-75
2022/03/10 01:58:44;;;;;;;;;;;0.60;99.90;;;-0.83;77.49;96346.56;10583927;28;1933;-78
2022/03/10 02:03:47;;;;;;;;;;;0.80;99.90;;;-0.89;77.41;96342.88;10589969;27;2052;-77
2022/03/10 02:19:33;;;;;;;;;;;0.50;99.90;;;-0.99;78.99;96349.47;10582070;28;1802;-78
2022/03/10 02:24:37;;;;;;;;;;;0.20;99.90;;;-1.14;80.01;96349.50;10585403;28;1894;-76
2022/03/10 02:29:49;;;;;;;;;;;0.20;99.90;;;-1.27;79.58;96350.19;10572148;28;1971;-74
2022/03/10 02:35:02;;;;;;;;;;;0.00;99.90;;;-1.31;81.18;96356.00;10569504;28;1896;-75
2022/03/10 02:40:05;;;;;;;;;;;-0.10;99.90;;;-1.32;82.42;96352.56;10577076;28;1901;-78
2022/03/10 02:45:08;;;;;;;;;;;-0.10;99.90;;;-1.21;81.85;96360.00;10570440;28;1982;-78
2022/03/10 02:50:12;;;;;;;;;;;0.00;99.90;;;-1.17;81.01;96355.16;10563373;22;2258;-75
2022/03/10 02:55:15;;;;;;;;;;;0.10;99.90;;;-1.21;81.51;96354.72;10516521;28;2023;-76
2022/03/10 03:00:19;;;;;;;;;;;0.00;99.90;;;-1.07;80.26;96363.59;10480526;28;1943;-76
2022/03/10 03:05:22;;;;;;;;;;;0.00;99.90;;;-1.17;81.42;96369.16;10474002;28;1915;-76
2022/03/10 03:10:25;;;;;;;;;;;0.00;99.90;;;-1.30;80.10;96371.63;10469489;28;2220;-76
2022/03/10 03:15:29;;;;;;;;;;;0.00;99.90;;;-1.42;80.96;96375.75;10466918;28;1954;-76
2022/03/10 03:20:32;;;;;;;;;;;-0.20;99.90;;;-1.54;81.55;96379.84;10470966;28;1837;-75
2022/03/10 03:25:35;;;;;;;;;;;-0.30;99.90;;;-1.63;81.57;96382.59;10477930;28;1918;-75
2022/03/10 03:30:38;;;;;;;;;;;-0.30;99.90;;;-1.67;82.99;96391.03;10468932;28;1843;-77
2022/03/10 03:35:42;;;;;;;;;;;-0.40;99.90;;;-1.71;84.08;96389.78;10477486;28;1879;-76
2022/03/10 03:40:45;;;;;;;;;;;-0.50;99.90;;;-1.76;84.41;96403.50;10479795;28;1809;-76
2022/03/10 03:45:48;;;;;;;;;;;-0.50;99.90;;;-1.80;84.70;96404.84;10491284;28;2046;-74
2022/03/10 03:50:52;;;;;;;;;;;-0.60;99.90;;;-1.72;84.49;96406.56;10506170;28;1808;-76
2022/03/10 03:55:56;;;;;;;;;;;-0.60;99.90;;;-1.70;84.53;96417.78;10499107;28;1821;-75
2022/03/10 04:00:59;;;;;;;;;;;-0.60;99.90;;;-1.79;84.55;96424.09;10520369;28;1815;-76
2022/03/10 04:06:02;;;;;;;;;;;-0.50;99.90;;;-1.82;84.75;96430.56;10499915;28;1894;-76
2022/03/10 04:11:07;;;;;;;;;;;-0.60;99.90;;;-1.59;83.99;96427.03;10501993;28;2184;-75
2022/03/10 04:16:10;;;;;;;;;;;-0.50;99.90;;;-1.51;82.33;96434.88;10507352;28;1841;-77
2022/03/10 04:21:14;;;;;;;;;;;-0.50;99.90;;;-1.64;82.30;96433.69;10501189;28;1838;-76
2022/03/10 04:26:17;;;;;;;;;;;-0.50;99.90;;;-1.77;83.11;96443.22;10493516;28;1976;-77
2022/03/10 04:31:20;;;;;;;;;;;-0.50;99.90;;;-1.84;84.54;96444.94;10491914;28;1718;-76
2022/03/10 04:36:26;;;;;;;;;;;-0.60;99.90;;;-1.80;85.04;96444.38;10513256;28;1867;-74
2022/03/10 04:41:30;;;;;;;;;;;-0.60;99.90;;;-1.82;84.73;96440.28;10482418;28;1945;-77
2022/03/10 04:46:33;;;;;;;;;;;-0.60;99.90;;;-1.81;85.38;96447.19;10475725;28;2243;-76
2022/03/10 04:51:36;;;;;;;;;;;-0.60;99.90;;;-1.81;84.04;96442.75;10468296;28;1995;-75
2022/03/10 04:56:39;;;;;;;;;;;-0.20;99.90;;;-1.76;84.23;96440.41;10476908;28;2036;-75
2022/03/10 05:01:42;;;;;;;;;;;-0.60;99.90;;;-1.73;82.98;96440.03;10471019;28;2189;-76
2022/03/10 05:06:46;;;;;;;;;;;-0.50;99.90;;;-1.82;84.10;96443.75;10467387;28;2009;-75
2022/03/10 05:11:49;;;;;;;;;;;-0.50;99.90;;;-1.87;83.99;96440.81;10474315;28;1935;-76
2022/03/10 05:16:52;;;;;;;;;;;-0.70;99.90;;;-1.79;84.16;96438.09;10470748;28;1813;-75
2022/03/10 05:21:55;;;;;;;;;;;-0.60;99.90;;;-1.87;83.78;96429.47;10466004;28;1781;-76
2022/03/10 05:27:00;;;;;;;;;;;-0.70;99.90;;;-1.97;83.66;96435.00;10474134;28;1981;-74
2022/03/10 05:32:03;;;;;;;;;;;-0.70;99.90;;;-1.91;84.95;96426.38;10489487;28;1906;-77
2022/03/10 05:37:06;;;;;;;;;;;-0.70;99.90;;;-1.92;84.71;96424.72;10479788;28;1964;-77
2022/03/10 05:42:09;;;;;;;;;;;-0.70;99.90;;;-1.89;84.28;96440.19;10472003;28;1945;-78
2022/03/10 05:47:12;;;;;;;;;;;-0.70;99.90;;;-1.79;83.64;96435.47;10473041;28;2161;-74
2022/03/10 05:52:15;;;;;;;;;;;-0.60;99.90;;;-1.77;83.23;96438.75;10469856;28;1825;-74
2022/03/10 05:57:21;;;;;;;;;;;-0.70;99.90;;;-1.56;81.96;96437.22;10473136;28;1878;-76
2022/03/10 06:02:23;;;;;;;;;;;-0.60;99.90;;;-1.39;80.51;96434.22;10471180;28;1904;-75
2022/03/10 06:07:27;;;;;;;;;;;-0.40;99.90;;;-1.21;79.16;96438.28;10474523;28;1961;-77
2022/03/10 06:12:31;;;;;;;;;;;-0.30;99.90;;;-1.12;76.83;96447.75;10486428;28;1831;-76
2022/03/10 06:17:34;;;;;;;;;;;-0.20;99.90;;;-1.01;75.60;96449.94;10510689;28;1923;-78
2022/03/10 06:22:37;;;;;;;;;;;-0.10;99.90;;;-0.82;74.51;96452.00;10502311;28;1789;-76
2022/03/10 06:27:43;;;;;;;;;;;0.10;99.90;;;-0.69;73.66;96459.25;10466919;28;1910;-72
2022/03/10 06:32:46;;;;;;;;;;;0.20;99.90;;;-0.46;71.59;96455.59;10480224;28;1802;-74
2022/03/10 06:37:49;;;;;;;;;;;0.40;99.90;;;-0.27;71.40;96470.81;10479029;28;1820;-73
2022/03/10 06:42:53;;;;;;;;;;;0.50;99.90;;;-0.09;71.29;96460.63;10476127;28;1827;-72
2022/03/10 06:47:56;;;;;;;;;;;0.70;99.90;;;0.07;70.51;96459.56;10474192;28;1910;-74
2022/03/10 06:53:00;;;;;;;;;;;0.80;99.90;;;0.38;68.13;96459.19;10472258;28;1996;-73
2022/03/10 06:58:03;;;;;;;;;;;1.10;99.90;;;0.61;66.44;96450.16;10470363;28;1866;-76
2022/03/10 07:03:06;;;;;;;;;;;1.60;99.90;;;0.83;65.31;96446.44;10473535;28;1880;-74
2022/03/10 07:08:11;;;;;;;;;;;1.70;99.90;;;0.96;64.48;96449.16;10481332;28;1987;-76
2022/03/10 07:13:14;;;;;;;;;;;1.90;99.90;;;1.20;63.73;96447.00;10471563;28;2201;-75
2022/03/10 07:18:17;;;;;;;;;;;2.10;99.90;;;1.35;62.42;96447.66;10480180;28;1927;-76
2022/03/10 07:23:20;;;;;;;;;;;2.20;99.90;;;1.48;61.88;96442.41;10474564;28;1739;-76
2022/03/10 07:28:23;;;;;;;;;;;2.30;99.90;;;1.66;61.55;96438.38;10480286;28;1967;-75
2022/03/10 07:33:26;;;;;;;;;;;2.50;99.90;;;1.79;60.30;96438.41;10480925;28;2127;-75
2022/03/10 07:38:32;;;;;;;;;;;2.70;99.90;;;1.93;60.08;96434.72;10482542;28;1818;-73
2022/03/10 07:43:36;;;;;;;;;;;2.80;99.90;;;2.13;58.52;96438.19;10480537;28;1897;-71
2022/03/10 07:48:40;;;;;;;;;;;2.90;99.90;;;2.27;58.13;96441.66;10483683;28;2124;-73
2022/03/10 07:53:43;;;;;;;;;;;3.10;99.90;;;2.35;57.05;96438.78;10478963;28;1810;-74
2022/03/10 07:58:46;;;;;;;;;;;3.10;99.90;;;2.54;56.18;96431.81;10497615;28;1911;-73
2022/03/10 08:03:49;;;;;;;;;;;3.40;99.90;;;2.89;55.59;96426.25;10497495;28;2097;-75
2022/03/10 08:08:52;;;;;;;;;;;3.70;99.90;;;2.94;55.53;96426.44;10468184;28;1913;-79
2022/03/10 08:13:56;;;;;;;;;;;3.90;99.90;;;2.98;54.93;96428.44;10490965;28;1823;-75
2022/03/10 08:18:59;;;;;;;;;;;3.90;99.90;;;3.17;53.91;96426.75;10496008;28;1866;-75
2022/03/10 08:24:01;;;;;;;;;;;3.90;99.90;;;3.47;52.92;96423.53;10483619;28;1932;-75
2022/03/10 08:29:04;;;;;;;;;;;4.20;99.90;;;3.91;52.54;96427.16;10474372;28;1929;-74
2022/03/10 08:34:08;;;;;;;;;;;4.50;99.90;;;4.25;51.44;96410.72;10489016;28;2014;-76
2022/03/10 08:39:13;;;;;;;;;;;4.80;99.90;;;4.67;51.16;96410.13;10483946;28;1902;-77
2022/03/10 08:44:16;;;;;;;;;;;5.20;99.90;;;4.67;51.39;96412.81;10478024;28;1844;-75
2022/03/10 08:49:19;;;;;;;;;;;5.40;99.90;;;4.72;50.71;96413.78;10476501;28;1985;-77
2022/03/10 08:54:23;;;;;;;;;;;5.60;99.90;;;4.69;50.56;96403.53;10488444;28;1897;-75
2022/03/10 08:59:27;;;;;;;;;;;5.50;99.90;;;4.91;50.80;96403.13;10484266;28;2140;-76
2022/03/10 09:04:29;;;;;;;;;;;5.70;99.90;;;5.25;49.59;96391.84;10477434;28;1998;-77
2022/03/10 09:09:33;;;;;;;;;;;5.90;99.90;;;5.39;48.43;96393.28;10478964;28;1894;-75
2022/03/10 09:14:37;;;;;;;;;;;6.10;99.90;;;5.80;47.27;96373.03;10485491;28;1898;-79
2022/03/10 09:19:39;;;;;;;;;;;6.40;99.90;;;6.12;46.34;96370.09;10513479;28;1824;-74
2022/03/10 09:24:43;;;;;;;;;;;;;;;6.47;45.53;96376.25;10480223;28;1845;-75
2022/03/10 09:29:46;;;;;;;;;;;;;;;6.33;47.02;96376.72;10483323;28;1983;-73
2022/03/10 09:34:50;;;;;;;;;;;;;;;6.33;45.83;96384.72;10482998;28;1737;-74
2022/03/10 09:39:53;;;;;;;;;;;;;;;6.52;45.45;96380.09;10471845;28;1703;-74
2022/03/10 09:44:56;;;;;;;;;;;;;;;6.72;46.20;96376.00;10475143;28;1986;-74
2022/03/10 09:49:59;;;;;;;;;;;7.30;99.90;;;6.94;44.15;96381.56;10479174;28;1963;-74
2022/03/10 09:55:02;;;;;;;;;;;7.70;99.40;;;6.93;44.30;96377.22;10475283;28;1824;-74
2022/03/10 10:00:05;;;;;;;;;;;7.80;98.60;;;7.16;43.98;96380.91;10479604;28;1784;-75
2022/03/10 10:05:08;;;;;;;;;;;8.00;97.70;;;7.49;43.95;96375.66;10480022;28;1885;-75
2022/03/10 10:10:12;;;;;;;;;;;8.10;98.10;;;7.46;43.26;96376.16;10474784;28;1978;-75
2022/03/10 10:15:15;;;;;;;;;;;8.30;97.00;;;7.52;44.09;96375.22;10475733;28;1927;-75
2022/03/10 10:20:20;;;;;;;;;;;8.40;97.00;;;7.88;43.43;96373.16;10477264;28;1886;-75
2022/03/10 10:25:24;;;;;;;;;;;8.60;97.40;;;8.14;42.42;96366.34;10471937;28;2226;-74
2022/03/10 10:30:33;;;;;;;;;;;8.80;99.40;;;8.20;41.73;96367.25;10479465;28;1910;-74
2022/03/10 10:35:37;;;;;;;;;;;9.10;95.70;;;8.41;40.99;96358.53;10484897;28;1563;-75
2022/03/10 10:40:40;;;;;;;;;;;;;;;8.43;39.61;96351.03;10500328;28;1530;-74
2022/03/10 10:45:43;;;;;;;;;;;9.00;99.90;;;8.66;37.99;96353.53;10474462;28;1897;-74
2022/03/10 10:50:47;;;;;;;;;;;9.40;99.90;;;8.78;36.65;96341.84;10468891;28;1997;-75
2022/03/10 10:55:55;;;;;;;;;;;9.50;99.90;;;8.83;38.19;96341.94;10481776;28;1936;-75
2022/03/10 11:00:59;;;;;;;;;;;9.70;99.90;;;9.17;35.33;96334.59;10494615;28;1879;-73
2022/03/10 11:06:02;;;;;;;;;;;9.90;99.90;;;8.82;36.49;96329.59;10471236;28;1859;-74
2022/03/10 11:11:05;;;;;;;;;;;10.00;99.90;;;8.87;36.08;96318.94;10478803;28;2149;-73
2022/03/10 11:16:08;;;;;;;;;;;9.80;99.90;;;9.14;35.74;96306.38;10471208;28;1837;-75
2022/03/10 11:21:11;;;;;;;;;;;9.90;99.90;;;9.33;35.31;96303.38;10476878;28;1812;-77
2022/03/10 11:26:14;;;;;;;;;;;10.10;99.90;;;9.37;34.07;96291.06;10472641;28;1768;-77
2022/03/10 11:31:17;;;;;;;;;;;10.00;99.90;;;9.09;33.36;96303.63;10474144;28;1914;-74
2022/03/10 11:36:20;;;;;;;;;;;10.10;99.90;;;9.02;32.33;96305.69;10471863;28;1841;-75
2022/03/10 11:41:23;;;;;;;;;;;9.80;99.90;;;9.16;32.27;96293.56;10471487;28;1889;-74
2022/03/10 11:46:26;;;;;;;;;;;;;;;9.21;30.33;96301.63;10474658;28;1840;-75
2022/03/10 11:51:30;;;;;;;;;;;;;;;9.33;30.57;96295.31;10461333;28;1973;-76
2022/03/10 11:56:33;;;;;;;;;;;10.20;98.30;;;9.48;29.91;96292.81;10470757;28;1891;-75
2022/03/10 12:01:35;;;;;;;;;;;10.10;99.90;;;9.45;34.35;96290.63;10485575;28;1892;-76
2022/03/10 12:06:39;;;;;;;;;;;10.20;99.90;;;9.39;28.18;96275.53;10475328;28;1995;-77
2022/03/10 12:11:41;;;;;;;;;;;10.20;99.90;;;9.51;34.71;96275.38;10485572;28;1866;-76
2022/03/10 12:16:44;;;;;;;;;;;10.30;99.90;;;9.38;34.78;96284.66;10483832;28;2019;-76
2022/03/10 12:21:49;;;;;;;;;;;;;;;9.30;35.48;96269.81;10472250;28;1838;-74
2022/03/10 12:26:52;;;;;;;;;;;10.10;99.70;;;9.24;35.39;96261.97;10484381;28;2069;-76
2022/03/10 12:31:56;;;;;;;;;;;10.10;99.90;;;9.34;35.64;96256.69;10474506;28;1902;-76
2022/03/10 12:37:00;;;;;;;;;;;10.10;99.90;;;9.38;35.91;96247.09;10473488;28;1897;-76
2022/03/10 12:42:04;;;;;;;;;;;;;;;9.19;35.37;96246.63;10476531;28;1911;-76
2022/03/10 12:47:08;;;;;;;;;;;;;;;9.46;34.83;96233.19;10479018;28;1979;-76
2022/03/10 12:52:12;;;;;;;;;;;10.20;99.90;;;9.27;34.35;96240.00;10480508;28;1854;-76
2022/03/10 12:57:15;;;;;;;;;;;;;;;9.42;34.17;96232.91;10482813;28;1972;-75
2022/03/10 13:02:18;;;;;;;;;;;10.20;99.90;;;9.28;33.46;96214.78;10501612;22;2287;-67
2022/03/10 13:07:22;;;;;;;;;;;;;;;9.46;33.64;96206.34;10503331;28;1957;-68
2022/03/10 13:12:26;;;;;;;;;;;10.20;99.90;;;9.37;32.61;96213.28;10455606;28;1845;-67
2022/03/10 13:17:29;;;;;;;;;;;10.30;79.20;;;9.40;31.63;96199.31;10445657;28;1878;-68
2022/03/10 13:22:32;;;;;;;;;;;10.30;82.80;;;9.68;31.63;96209.78;10464550;28;2024;-66
2022/03/10 13:27:35;;;;;;;;;;;10.40;84.00;;;9.57;30.77;96202.69;10449910;28;1910;-68
2022/03/10 13:32:37;;;;;;;;;;;10.40;82.70;;;9.70;29.63;96188.84;10453909;28;1751;-68
2022/03/10 13:37:40;;;;;;;;;;;10.40;80.80;;;9.47;29.64;96181.94;10435029;28;1874;-68
2022/03/10 13:42:44;;;;;;;;;;;10.50;81.60;;;9.63;29.54;96182.88;10455067;28;2052;-68
2022/03/10 13:47:47;;;;;;;;;;;10.40;81.30;;;9.73;28.77;96182.13;10437442;28;2359;-68
2022/03/10 13:52:49;;;;;;;;;;;10.50;80.70;;;9.67;26.96;96191.22;10450705;28;1910;-68
2022/03/10 13:57:52;;;;;;;;;;;10.50;78.80;;;9.77;27.43;96171.69;10452078;28;1849;-67
2022/03/10 14:02:55;;;;;;;;;;;10.50;79.10;;;9.78;27.14;96171.44;10437878;28;1860;-66
2022/03/10 14:07:58;;;;;;;;;;;10.60;91.60;;;9.75;27.23;96175.47;10452423;28;1982;-68
2022/03/10 14:13:01;;;;;;;;;;;10.50;91.00;;;9.74;26.73;96155.06;10430635;28;1879;-68
2022/03/10 14:18:04;;;;;;;;;;;10.50;90.60;;;9.63;26.60;96150.69;10434055;28;1841;-67
2022/03/10 14:23:07;;;;;;;;;;;10.60;90.00;;;9.82;25.54;96153.75;10445341;28;1868;-68
2022/03/10 14:28:11;;;;;;;;;;;10.60;89.00;;;9.91;24.44;96154.06;10432363;28;1962;-67
2022/03/10 14:33:14;;;;;;;;;;;10.70;87.50;;;9.77;24.37;96142.97;10456668;28;1825;-67
2022/03/10 14:38:17;;;;;;;;;;;10.70;99.70;;;9.71;24.77;96131.41;10463745;28;1879;-67
2022/03/10 14:43:21;;;;;;;;;;;;;;;9.80;25.21;96137.09;10436780;28;1978;-68
2022/03/10 14:48:24;;;;;;;;;;;;;;;9.73;26.34;96117.72;10455407;28;1909;-68
2022/03/10 14:53:27;;;;;;;;;;;;;;;9.75;26.70;96124.44;10432005;28;2416;-67
2022/03/10 14:58:30;;;;;;;;;;;;;;;9.80;26.17;96117.47;10461435;28;1904;-68
2022/03/10 15:03:34;;;;;;;;;;;;;;;9.75;26.33;96124.44;10451871;28;1794;-68
2022/03/10 15:08:37;;;;;;;;;;;;;;;9.73;25.78;96110.50;10429572;28;1981;-67
2022/03/10 15:13:40;;;;;;;;;;;10.60;99.90;;;9.79;26.32;96113.19;10433929;28;2270;-67
2022/03/10 15:18:44;;;;;;;;;;;;;;;9.77;24.85;96110.75;10459822;28;1905;-67
2022/03/10 15:23:48;;;;;;;;;;;10.60;95.80;;;9.71;21.53;96112.59;10425027;28;2159;-67
2022/03/10 15:28:53;;;;;;;;;;;10.60;60.80;;;9.58;21.77;96102.31;10455002;28;1934;-69
2022/03/10 15:33:56;;;;;;;;;;;10.50;65.20;;;9.65;22.87;96097.53;10451614;28;1858;-68
2022/03/10 15:38:59;;;;;;;;;;;10.50;66.70;;;9.62;22.76;96092.69;10477888;28;1821;-70
2022/03/10 15:44:03;;;;;;;;;;;10.50;66.60;;;9.47;23.78;96103.31;10496056;28;1816;-68
2022/03/10 15:49:06;;;;;;;;;;;10.40;70.30;;;9.40;24.43;96090.13;10446888;28;1976;-67
2022/03/10 15:54:09;;;;;;;;;;;10.40;71.50;;;9.37;24.96;96096.03;10458949;28;2122;-67
2022/03/10 15:59:11;;;;;;;;;;;10.30;72.30;;;9.28;24.51;96096.75;10442163;28;1890;-69
2022/03/10 16:04:14;;;;;;;;;;;10.20;72.00;;;9.18;25.42;96086.75;10454544;28;1797;-68
2022/03/10 16:09:17;;;;;;;;;;;10.10;72.70;;;9.06;26.10;96094.19;10443358;28;1971;-68
2022/03/10 16:14:20;;;;;;;;;;;10.10;65.40;;;9.01;26.02;96083.41;10457419;28;1860;-68
2022/03/10 16:19:23;;;;;;;;;;;10.00;65.40;;;9.02;25.90;96077.78;10458130;28;1981;-68
2022/03/10 16:24:26;;;;;;;;;;;10.00;65.40;;;8.91;27.37;96090.31;10449480;28;1825;-67
2022/03/10 16:29:30;;;;;;;;;;;9.90;66.10;;;8.88;26.90;96076.59;10450919;28;1990;-68
2022/03/10 16:34:33;;;;;;;;;;;9.90;66.40;;;8.77;27.52;96082.91;10435517;28;1904;-68
2022/03/10 16:39:36;;;;;;;;;;;9.90;66.20;;;8.61;26.49;96081.97;10434495;28;1890;-68
2022/03/10 16:44:39;;;;;;;;;;;9.80;65.20;;;8.48;27.13;96088.56;10436448;28;1817;-68
2022/03/10 16:49:43;;;;;;;;;;;9.60;65.50;;;8.35;27.26;96089.75;10450720;28;2025;-68
2022/03/10 16:54:46;;;;;;;;;;;9.40;65.90;;;8.13;28.17;96081.69;10432574;28;1788;-68
2022/03/10 16:59:49;;;;;;;;;;;9.30;67.00;;;8.01;30.16;96082.88;10452076;28;1936;-68
2022/03/10 17:04:53;;;;;;;;;;;9.10;68.80;;;7.90;31.24;96087.31;10468034;28;1801;-68
2022/03/10 17:09:55;;;;;;;;;;;9.00;70.30;;;7.73;32.05;96067.84;10491915;28;1887;-67
2022/03/10 17:14:58;;;;;;;;;;;8.90;71.40;;;7.57;33.24;96085.53;10465428;28;1872;-68
2022/03/10 17:20:01;;;;;;;;;;;8.70;72.50;;;7.35;34.26;96082.03;10492428;28;1994;-68
2022/03/10 17:25:04;;;;;;;;;;;8.50;73.50;;;7.21;34.52;96078.88;10468724;28;1801;-70
2022/03/10 17:30:08;;;;;;;;;;;8.40;74.20;;;7.04;34.78;96085.03;10455892;28;1995;-69
2022/03/10 17:35:11;;;;;;;;;;;8.30;74.70;;;6.99;36.11;96092.16;10441186;28;1867;-68
2022/03/10 17:40:15;;;;;;;;;;;8.10;75.20;;;6.83;34.91;96093.78;10465853;28;1817;-69
2022/03/10 17:45:18;;;;;;;;;;;7.90;74.60;;;6.62;35.58;96089.97;10436584;28;1719;-70
2022/03/10 17:50:24;;;;;;;;;;;7.80;75.30;;;6.49;35.97;96098.28;10463031;28;1971;-69
2022/03/10 17:55:27;;;;;;;;;;;7.60;75.40;;;6.35;36.43;96097.72;10465139;28;1913;-68
2022/03/10 18:00:32;;;;;;;;;;;7.50;75.80;;;6.21;36.56;96091.88;10445041;28;2261;-68
2022/03/10 18:05:35;;;;;;;;;;;7.30;76.20;;;6.05;37.00;96102.50;10459996;28;1832;-68
2022/03/10 18:10:38;;;;;;;;;;;7.10;76.40;;;5.88;37.30;96097.88;10454566;28;1956;-70
2022/03/10 18:15:42;;;;;;;;;;;7.00;76.70;;;5.64;38.22;96101.63;10431978;28;1874;-68
2022/03/10 18:20:46;;;;;;;;;;;6.90;77.40;;;5.56;38.59;96105.47;10444125;28;1842;-68
2022/03/10 18:25:50;;;;;;;;;;;6.70;78.10;;;5.47;39.04;96106.88;10441844;28;2190;-69
2022/03/10 18:30:54;;;;;;;;;;;6.70;78.60;;;5.34;39.39;96101.75;10468021;28;1915;-69
2022/03/10 18:35:58;;;;;;;;;;;6.60;79.10;;;5.24;40.24;96106.88;10455463;28;1936;-68
2022/03/10 18:41:00;;;;;;;;;;;6.60;80.00;;;5.16;40.80;96105.38;10458833;28;1837;-69
2022/03/10 18:46:03;;;;;;;;;;;6.30;80.60;;;5.05;41.46;96098.16;10457500;28;1844;-67
2022/03/10 18:51:06;;;;;;;;;;;6.20;81.40;;;4.87;42.48;96101.72;10437290;28;2054;-68
2022/03/10 18:56:28;;;;;;;;;;;6.10;82.30;;;4.75;43.12;96106.22;10447790;28;4023;-69
2022/03/10 19:01:31;;;;;;;;;;;6.00;82.90;;;4.60;44.06;96098.69;10455608;28;1957;-68
2022/03/10 19:06:34;;;;;;;;;;;5.70;83.60;;;4.55;44.45;96095.88;10455769;28;1834;-67
2022/03/10 19:11:37;;;;;;;;;;;5.60;86.90;;;4.41;45.35;96097.13;10436888;28;2309;-70
2022/03/10 19:16:40;;;;;;;;;;;5.50;85.30;;;4.32;45.94;96089.44;10443088;28;2084;-67
2022/03/10 19:21:43;;;;;;;;;;;5.30;86.10;;;4.25;47.14;96094.03;10524849;22;2365;-77
2022/03/10 19:26:46;;;;;;;;;;;5.50;86.80;;;4.11;47.36;96092.59;10540194;28;2018;-76
2022/03/10 19:31:50;;;;;;;;;;;5.40;87.40;;;4.09;48.56;96088.53;10518855;28;2011;-78
2022/03/10 19:36:56;;;;;;;;;;;5.40;88.20;;;3.99;48.46;96086.41;10518059;28;1768;-76
2022/03/10 19:42:00;;;;;;;;;;;5.00;88.50;;;4.00;49.27;96090.69;10491380;28;2206;-79
2022/03/10 19:47:03;;;;;;;;;;;5.10;89.20;;;3.89;49.75;96096.78;10533414;28;1873;-78
2022/03/10 19:52:06;;;;;;;;;;;4.90;91.80;;;3.92;48.96;96096.31;10513162;28;2174;-78
2022/03/10 19:57:09;;;;;;;;;;;5.10;89.90;;;3.86;49.83;96092.69;10515817;28;1826;-76
2022/03/10 20:02:12;;;;;;;;;;;4.90;90.10;;;3.87;49.67;96102.31;10504496;28;1910;-77
2022/03/10 20:07:15;;;;;;;;;;;4.90;90.60;;;3.86;50.67;96095.38;10531366;28;2217;-75
2022/03/10 20:12:19;;;;;;;;;;;4.90;91.30;;;3.83;51.25;96092.34;10524931;28;2072;-76
2022/03/10 20:17:23;;;;;;;;;;;4.90;91.90;;;3.81;51.81;96097.88;10530345;28;1785;-76
2022/03/10 20:22:30;;;;;;;;;;;4.90;92.60;;;3.74;53.35;96087.31;10542896;28;1757;-76
2022/03/10 20:27:33;;;;;;;;;;;4.80;93.30;;;3.70;53.73;96088.81;10544125;28;1996;-77
2022/03/10 20:32:36;;;;;;;;;;;4.80;94.20;;;3.65;54.27;96083.34;10525649;28;1973;-78
2022/03/10 20:37:42;;;;;;;;;;;4.70;95.10;;;3.52;55.01;96083.50;10548256;28;1947;-78
2022/03/10 20:42:46;;;;;;;;;;;4.60;95.40;;;3.45;55.84;96088.06;10524323;28;1869;-79
2022/03/10 20:47:49;;;;;;;;;;;4.50;96.10;;;3.40;56.50;96083.41;10519003;28;1892;-78
2022/03/10 20:52:52;;;;;;;;;;;4.50;96.80;;;3.20;57.49;96080.97;10526066;28;2261;-77
2022/03/10 20:57:55;;;;;;;;;;;4.40;97.30;;;3.13;58.13;96085.53;10526853;28;2151;-77
2022/03/10 21:02:59;;;;;;;;;;;4.20;98.50;;;3.09;59.07;96084.34;10525234;28;1680;-78
2022/03/10 21:08:02;;;;;;;;;;;4.20;99.20;;;2.96;59.97;96085.28;10532336;28;1899;-76
2022/03/10 21:13:06;;;;;;;;;;;4.10;99.90;;;2.84;60.76;96088.84;10520549;28;1893;-76
2022/03/10 21:18:09;;;;;;;;;;;4.00;99.90;;;2.71;61.61;96081.81;10512916;28;1767;-78
2022/03/10 21:23:12;;;;;;;;;;;4.00;99.90;;;2.58;62.51;96082.72;10487299;28;1884;-77
2022/03/10 21:28:15;;;;;;;;;;;3.70;99.90;;;2.46;63.30;96083.63;10462816;28;1802;-78
2022/03/10 21:33:18;;;;;;;;;;;3.50;99.90;;;2.39;63.87;96073.88;10495690;28;1984;-77
2022/03/10 21:38:21;;;;;;;;;;;3.50;99.90;;;2.32;64.69;96061.69;10507029;28;1854;-79
2022/03/10 21:43:24;;;;;;;;;;;3.40;99.90;;;2.22;65.01;96062.16;10513519;28;1870;-79
2022/03/10 21:48:27;;;;;;;;;;;3.20;99.90;;;2.15;65.74;96061.38;10493557;28;1897;-75
2022/03/10 21:53:31;;;;;;;;;;;3.10;99.90;;;2.05;65.76;96056.56;10488368;28;2418;-77
2022/03/10 21:58:34;;;;;;;;;;;3.10;99.90;;;1.95;65.93;96045.59;10505122;28;1884;-77
2022/03/10 22:03:38;;;;;;;;;;;3.00;99.90;;;1.81;66.56;96047.50;10488248;28;1865;-80
2022/03/10 22:08:40;;;;;;;;;;;3.00;99.90;;;1.74;66.46;96037.97;10500418;28;2597;-78
2022/03/10 22:13:44;;;;;;;;;;;2.80;99.90;;;1.61;66.95;96033.53;10502799;28;1894;-79
2022/03/10 22:18:47;;;;;;;;;;;2.70;99.90;;;1.55;66.61;96026.44;10504386;28;1618;-79
2022/03/10 22:23:49;;;;;;;;;;;2.50;99.90;;;1.41;67.60;96030.97;10483183;28;1816;-78
2022/03/10 22:28:53;;;;;;;;;;;2.50;99.90;;;1.28;67.16;96033.69;10503180;28;1927;-79
2022/03/10 22:33:56;;;;;;;;;;;2.40;99.90;;;1.19;67.24;96035.72;10498222;28;1914;-80
2022/03/10 22:39:00;;;;;;;;;;;2.30;99.90;;;1.11;66.83;96032.50;10476288;28;1888;-78
2022/03/10 22:44:03;;;;;;;;;;;2.20;99.90;;;1.06;67.16;96030.47;10497731;28;1798;-78
2022/03/10 22:49:06;;;;;;;;;;;2.10;99.90;;;0.94;67.57;96027.63;10491525;28;1860;-77
2022/03/10 22:54:16;;;;;;;;;;;2.00;99.90;;;0.83;67.05;96017.69;10494270;28;1895;-79
2022/03/10 22:59:20;;;;;;;;;;;1.90;99.90;;;0.73;66.63;96015.47;10493450;28;1986;-79
2022/03/10 23:09:44;;;;;;;;;;;1.90;99.90;;;0.55;66.81;96012.63;10492456;28;2003;-79
2022/03/10 23:14:47;;;;;;;;;;;-0.10;99.90;;;0.44;66.79;96014.06;10493035;28;1785;-78
2022/03/10 23:19:51;;;;;;;;;;;;;;;0.36;65.97;96016.91;10490623;28;1858;-78
2022/03/10 23:24:55;;;;;;;;;;;;;;;0.28;66.21;96021.59;10474538;28;1865;-77
2022/03/10 23:29:58;;;;;;;;;;;;;;;0.17;65.27;96021.16;10502835;28;1999;-79
2022/03/10 23:35:02;;;;;;;;;;;1.10;99.90;;;0.08;65.92;96025.03;10496029;28;1874;-77
2022/03/10 23:40:05;;;;;;;;;;;1.60;99.90;;;0.08;63.64;96021.59;10520763;28;1829;-79
2022/03/10 23:45:09;;;;;;;;;;;-0.30;99.90;;;-0.02;63.71;96006.91;10518775;28;1772;-77
2022/03/10 23:50:13;;;;;;;;;;;1.60;99.90;;;-0.07;63.12;96008.53;10508564;28;1914;-78
2022/03/10 23:55:16;;;;;;;;;;;1.00;99.90;;;-0.12;61.20;96013.63;10481285;28;1722;-79
